Time,TemperatureF,DewpointF,PressureIn,WindDirection,WindDirectionDegrees,WindSpeedMPH,WindSpeedGustMPH,Humidity,HourlyPrecipIn,Conditions,Clouds,dailyrainin,SolarRadiationWatts/m^2,SoftwareType,DateUTC
2013-01-02 00:02:00,41.0,20.0,-100.00,ENE,66,4.0,6.0,43,0.00,,,0.00,0.000000,,2013-01-02 08:02:00,
2013-01-02 00:11:00,41.0,20.0,-100.00,ENE,66,4.0,6.0,43,0.00,,,0.00,0.000000,,2013-01-02 08:11:00,
2013-01-02 00:21:00,41.0,20.0,-100.00,ENE,66,4.0,6.0,43,0.00,,,0.00,0.000000,,2013-01-02 08:21:00,
2013-01-02 00:53:00,41.0,22.0,-100.00,East,88,11.0,13.0,47,0.00,,,0.00,0.000000,,2013-01-02 08:53:00,
2013-01-02 01:02:00,41.0,22.0,-100.00,East,88,11.0,13.0,47,0.00,,,0.00,0.000000,,2013-01-02 09:02:00,
2013-01-02 01:12:00,41.0,22.0,-100.00,East,88,11.0,13.0,47,0.00,,,0.00,0.000000,,2013-01-02 09:12:00,
2013-01-02 01:22:00,41.0,22.0,-100.00,East,88,11.0,13.0,47,0.00,,,0.00,0.000000,,2013-01-02 09:22:00,
2013-01-02 01:52:00,41.0,24.0,-100.00,ESE,109,10.0,14.0,50,0.00,,,0.00,0.000000,,2013-01-02 09:52:00,
2013-01-02 02:02:00,41.0,24.0,-100.00,ESE,109,10.0,14.0,50,0.00,,,0.00,0.000000,,2013-01-02 10:02:00,
2013-01-02 02:12:00,41.0,24.0,-100.00,ESE,109,10.0,14.0,50,0.00,,,0.00,0.000000,,2013-01-02 10:12:00,
2013-01-02 02:22:00,41.0,24.0,-100.00,ESE,109,10.0,14.0,50,0.00,,,0.00,0.000000,,2013-01-02 10:22:00,
2013-01-02 02:52:00,40.0,27.0,-100.00,East,96,12.0,16.0,59,0.00,,,0.00,0.000000,,2013-01-02 10:52:00,
2013-01-02 03:02:00,40.0,27.0,-100.00,East,96,12.0,16.0,59,0.00,,,0.00,0.000000,,2013-01-02 11:02:00,
2013-01-02 03:11:00,40.0,27.0,-100.00,East,96,12.0,16.0,59,0.00,,,0.00,0.000000,,2013-01-02 11:11:00,
2013-01-02 03:22:00,40.0,27.0,-100.00,East,96,12.0,16.0,59,0.00,,,0.00,0.000000,,2013-01-02 11:22:00,
2013-01-02 03:52:00,39.0,27.0,-100.00,East,91,10.0,15.0,62,0.00,,,-99.99,0.000000,,2013-01-02 11:52:00,
2013-01-02 04:02:00,39.0,27.0,-100.00,East,91,10.0,15.0,62,0.00,,,-99.99,0.000000,,2013-01-02 12:02:00,
2013-01-02 04:12:00,39.0,27.0,-100.00,East,91,10.0,15.0,62,0.00,,,-99.99,0.000000,,2013-01-02 12:12:00,
2013-01-02 04:22:00,39.0,27.0,-100.00,East,91,10.0,15.0,62,0.00,,,-99.99,0.000000,,2013-01-02 12:22:00,
2013-01-02 04:53:00,36.0,25.0,-100.00,ENE,76,8.0,12.0,65,0.00,,,0.00,0.000000,,2013-01-02 12:53:00,
2013-01-02 05:02:00,36.0,25.0,-100.00,ENE,76,8.0,12.0,65,0.00,,,0.00,0.000000,,2013-01-02 13:02:00,
2013-01-02 05:12:00,36.0,25.0,-100.00,ENE,76,8.0,12.0,65,0.00,,,0.00,0.000000,,2013-01-02 13:12:00,
2013-01-02 05:22:00,36.0,25.0,-100.00,ENE,76,8.0,12.0,65,0.00,,,0.00,0.000000,,2013-01-02 13:22:00,
2013-01-02 05:52:00,37.0,28.0,-100.00,East,90,9.0,10.0,71,0.00,,,0.00,0.000000,,2013-01-02 13:52:00,
2013-01-02 06:02:00,37.0,28.0,-100.00,East,90,9.0,10.0,71,0.00,,,0.00,0.000000,,2013-01-02 14:02:00,
2013-01-02 06:12:00,37.0,28.0,-100.00,East,90,9.0,10.0,71,0.00,,,0.00,0.000000,,2013-01-02 14:12:00,
2013-01-02 06:22:00,37.0,28.0,-100.00,East,90,9.0,10.0,71,0.00,,,0.00,0.000000,,2013-01-02 14:22:00,
2013-01-02 06:53:00,37.0,28.0,-100.00,East,90,9.0,11.0,71,0.00,,,0.00,0.000000,,2013-01-02 14:53:00,
2013-01-02 07:02:00,37.0,28.0,-100.00,East,90,9.0,11.0,71,0.00,,,0.00,0.000000,,2013-01-02 15:02:00,
2013-01-02 07:12:00,37.0,28.0,-100.00,East,90,9.0,11.0,71,0.00,,,0.00,0.000000,,2013-01-02 15:12:00,
2013-01-02 07:22:00,37.0,28.0,-100.00,East,90,9.0,11.0,71,0.00,,,0.00,0.000000,,2013-01-02 15:22:00,
2013-01-02 07:53:00,39.0,28.0,-100.00,East,95,9.0,11.0,65,0.00,,,0.00,1.000000,,2013-01-02 15:53:00,
2013-01-02 08:03:00,39.0,28.0,-100.00,East,95,9.0,11.0,65,0.00,,,0.00,1.000000,,2013-01-02 16:03:00,
2013-01-02 08:12:00,39.0,28.0,-100.00,East,95,9.0,11.0,65,0.00,,,0.00,1.000000,,2013-01-02 16:12:00,
2013-01-02 08:22:00,39.0,28.0,-100.00,East,95,9.0,11.0,65,0.00,,,0.00,1.000000,,2013-01-02 16:22:00,
2013-01-02 08:53:00,42.0,33.0,-100.00,East,88,4.0,9.0,70,0.00,,,0.00,45.000000,,2013-01-02 16:53:00,
2013-01-02 09:03:00,42.0,33.0,-100.00,East,88,4.0,9.0,70,0.00,,,0.00,45.000000,,2013-01-02 17:03:00,
2013-01-02 09:12:00,42.0,33.0,-100.00,East,88,4.0,9.0,70,0.00,,,0.00,45.000000,,2013-01-02 17:12:00,
2013-01-02 09:22:00,42.0,33.0,-100.00,East,88,4.0,9.0,70,0.00,,,0.00,45.000000,,2013-01-02 17:22:00,
2013-01-02 09:53:00,45.0,31.0,-100.00,ENE,75,5.0,7.0,57,0.00,,,-99.99,175.000000,,2013-01-02 17:53:00,
2013-01-02 10:02:00,45.0,31.0,-100.00,ENE,75,5.0,7.0,57,0.00,,,-99.99,175.000000,,2013-01-02 18:02:00,
2013-01-02 10:12:00,45.0,31.0,-100.00,ENE,75,5.0,7.0,57,0.00,,,-99.99,175.000000,,2013-01-02 18:12:00,
2013-01-02 10:22:00,45.0,31.0,-100.00,ENE,75,5.0,7.0,57,0.00,,,-99.99,175.000000,,2013-01-02 18:22:00,
2013-01-02 10:53:00,48.0,32.0,-100.00,ENE,57,5.0,9.0,53,0.00,,,0.00,338.000000,,2013-01-02 18:53:00,
2013-01-02 11:02:00,48.0,32.0,-100.00,ENE,57,5.0,9.0,53,0.00,,,0.00,338.000000,,2013-01-02 19:02:00,
2013-01-02 11:12:00,48.0,32.0,-100.00,ENE,57,5.0,9.0,53,0.00,,,0.00,338.000000,,2013-01-02 19:12:00,
2013-01-02 11:22:00,48.0,32.0,-100.00,ENE,57,5.0,9.0,53,0.00,,,0.00,338.000000,,2013-01-02 19:22:00,
2013-01-02 11:52:00,51.0,30.0,-100.00,ENE,70,6.0,10.0,45,0.00,,,0.00,436.000000,,2013-01-02 19:52:00,
2013-01-02 12:02:00,51.0,30.0,-100.00,ENE,70,6.0,10.0,45,0.00,,,0.00,436.000000,,2013-01-02 20:02:00,
2013-01-02 12:12:00,51.0,30.0,-100.00,ENE,70,6.0,10.0,45,0.00,,,0.00,436.000000,,2013-01-02 20:12:00,
2013-01-02 12:22:00,51.0,30.0,-100.00,ENE,70,6.0,10.0,45,0.00,,,0.00,436.000000,,2013-01-02 20:22:00,
2013-01-02 12:53:00,49.0,27.0,-100.00,East,79,8.0,11.0,42,0.00,,,0.00,482.000000,,2013-01-02 20:53:00,
2013-01-02 13:03:00,49.0,27.0,-100.00,East,79,8.0,11.0,42,0.00,,,0.00,482.000000,,2013-01-02 21:03:00,
2013-01-02 13:12:00,49.0,27.0,-100.00,East,79,8.0,11.0,42,0.00,,,0.00,482.000000,,2013-01-02 21:12:00,
2013-01-02 13:22:00,49.0,27.0,-100.00,East,79,8.0,11.0,42,0.00,,,0.00,482.000000,,2013-01-02 21:22:00,
2013-01-02 13:53:00,50.0,29.0,-100.00,East,80,9.0,11.0,45,0.00,,,0.00,470.000000,,2013-01-02 21:53:00,
2013-01-02 14:02:00,50.0,29.0,-100.00,East,80,9.0,11.0,45,0.00,,,0.00,470.000000,,2013-01-02 22:02:00,
2013-01-02 14:12:00,50.0,29.0,-100.00,East,80,9.0,11.0,45,0.00,,,0.00,470.000000,,2013-01-02 22:12:00,
2013-01-02 14:22:00,50.0,29.0,-100.00,East,80,9.0,11.0,45,0.00,,,0.00,470.000000,,2013-01-02 22:22:00,
2013-01-02 14:53:00,48.0,29.0,-100.00,ENE,78,11.0,13.0,48,0.00,,,0.00,404.000000,,2013-01-02 22:53:00,
2013-01-02 15:02:00,48.0,29.0,-100.00,ENE,78,11.0,13.0,48,0.00,,,0.00,404.000000,,2013-01-02 23:02:00,
2013-01-02 15:12:00,48.0,29.0,-100.00,ENE,78,11.0,13.0,48,0.00,,,0.00,404.000000,,2013-01-02 23:12:00,
2013-01-02 15:22:00,48.0,29.0,-100.00,ENE,78,11.0,13.0,48,0.00,,,0.00,404.000000,,2013-01-02 23:22:00,
2013-01-02 15:53:00,45.0,29.0,-100.00,ESE,102,13.0,16.0,54,0.00,,,0.00,291.000000,,2013-01-02 23:53:00,
2013-01-02 16:02:00,45.0,29.0,-100.00,ESE,102,13.0,16.0,54,0.00,,,0.00,291.000000,,2013-01-03 00:02:00,
2013-01-02 16:12:00,45.0,29.0,-100.00,ESE,102,13.0,16.0,54,0.00,,,0.00,291.000000,,2013-01-03 00:12:00,
2013-01-02 16:22:00,45.0,29.0,-100.00,ESE,102,13.0,16.0,54,0.00,,,0.00,291.000000,,2013-01-03 00:22:00,
2013-01-02 16:52:00,43.0,32.0,-100.00,ESE,104,13.0,15.0,65,0.00,,,0.00,112.000000,,2013-01-03 00:52:00,
2013-01-02 17:02:00,43.0,32.0,-100.00,ESE,104,13.0,15.0,65,0.00,,,0.00,112.000000,,2013-01-03 01:02:00,
2013-01-02 17:12:00,43.0,32.0,-100.00,ESE,104,13.0,15.0,65,0.00,,,0.00,112.000000,,2013-01-03 01:12:00,
2013-01-02 17:22:00,43.0,32.0,-100.00,ESE,104,13.0,15.0,65,0.00,,,0.00,112.000000,,2013-01-03 01:22:00,
2013-01-02 17:52:00,43.0,29.0,-100.00,ESE,103,10.0,14.0,58,0.00,,,0.00,6.000000,,2013-01-03 01:52:00,
2013-01-02 18:02:00,43.0,29.0,-100.00,ESE,103,10.0,14.0,58,0.00,,,0.00,6.000000,,2013-01-03 02:02:00,
2013-01-02 18:12:00,43.0,29.0,-100.00,ESE,103,10.0,14.0,58,0.00,,,0.00,6.000000,,2013-01-03 02:12:00,
2013-01-02 18:22:00,43.0,29.0,-100.00,ESE,103,10.0,14.0,58,0.00,,,0.00,6.000000,,2013-01-03 02:22:00,
2013-01-02 19:02:00,44.0,26.0,-100.00,ESE,103,8.0,11.0,48,0.00,,,0.00,0.000000,,2013-01-03 03:02:00,
2013-01-02 19:12:00,44.0,26.0,-100.00,ESE,103,8.0,11.0,48,0.00,,,0.00,0.000000,,2013-01-03 03:12:00,
2013-01-02 19:22:00,44.0,26.0,-100.00,ESE,103,8.0,11.0,48,0.00,,,0.00,0.000000,,2013-01-03 03:22:00,
2013-01-02 19:53:00,46.0,26.0,-100.00,ESE,111,10.0,15.0,46,0.00,,,0.00,0.000000,,2013-01-03 03:53:00,
2013-01-02 20:02:00,46.0,26.0,-100.00,ESE,111,10.0,15.0,46,0.00,,,0.00,0.000000,,2013-01-03 04:02:00,
2013-01-02 20:12:00,46.0,26.0,-100.00,ESE,111,10.0,15.0,46,0.00,,,0.00,0.000000,,2013-01-03 04:12:00,
2013-01-02 20:22:00,46.0,26.0,-100.00,ESE,111,10.0,15.0,46,0.00,,,0.00,0.000000,,2013-01-03 04:22:00,
2013-01-02 20:52:00,43.0,27.0,-100.00,East,100,9.0,12.0,52,0.00,,,0.00,0.000000,,2013-01-03 04:52:00,
2013-01-02 21:03:00,43.0,27.0,-100.00,East,100,9.0,12.0,52,0.00,,,0.00,0.000000,,2013-01-03 05:03:00,
2013-01-02 21:12:00,43.0,27.0,-100.00,East,100,9.0,12.0,52,0.00,,,0.00,0.000000,,2013-01-03 05:12:00,
2013-01-02 21:22:00,43.0,27.0,-100.00,East,100,9.0,12.0,52,0.00,,,0.00,0.000000,,2013-01-03 05:22:00,
2013-01-02 21:53:00,43.0,30.0,-100.00,East,96,6.0,9.0,59,0.00,,,0.00,0.000000,,2013-01-03 05:53:00,
2013-01-02 22:02:00,43.0,30.0,-100.00,East,96,6.0,9.0,59,0.00,,,0.00,0.000000,,2013-01-03 06:02:00,
2013-01-02 22:12:00,43.0,30.0,-100.00,East,96,6.0,9.0,59,0.00,,,0.00,0.000000,,2013-01-03 06:12:00,
2013-01-02 22:22:00,43.0,30.0,-100.00,East,96,6.0,9.0,59,0.00,,,0.00,0.000000,,2013-01-03 06:22:00,
2013-01-02 22:52:00,42.0,28.0,-100.00,East,97,10.0,12.0,58,0.00,,,0.00,0.000000,,2013-01-03 06:52:00,
2013-01-02 23:02:00,42.0,28.0,-100.00,East,97,10.0,12.0,58,0.00,,,0.00,0.000000,,2013-01-03 07:02:00,
2013-01-02 23:12:00,42.0,28.0,-100.00,East,97,10.0,12.0,58,0.00,,,0.00,0.000000,,2013-01-03 07:12:00,
2013-01-02 23:22:00,42.0,28.0,-100.00,East,97,10.0,12.0,58,0.00,,,0.00,0.000000,,2013-01-03 07:22:00,
2013-01-02 23:53:00,41.0,30.0,-100.00,East,100,11.0,13.0,65,0.00,,,0.00,0.000000,,2013-01-03 07:53:00,